sensor_id;sensor_type;location;lat;lon;timestamp;pressure;altitude;pressure_sealevel;temperature;humidity
7376;BME280;3728;42.266;24.944;2023-01-04T00:00:06;100461.47;;;4.32;100.00
7376;BME280;3728;42.266;24.944;2023-01-04T00:02:34;100462.81;;;4.34;100.00
7376;BME280;3728;42.266;24.944;2023-01-04T00:05:02;100457.31;;;4.31;100.00
7376;BME280;3728;42.266;24.944;2023-01-04T00:07:30;100459.94;;;4.69;100.00
7376;BME280;3728;42.266;24.944;2023-01-04T00:09:58;100456.81;;;4.50;98.97
7376;BME280;3728;42.266;24.944;2023-01-04T00:12:25;100457.31;;;4.31;100.00
7376;BME280;3728;42.266;24.944;2023-01-04T00:14:53;100456.28;;;4.32;100.00
7376;BME280;3728;42.266;24.944;2023-01-04T00:17:20;100458.31;;;4.13;100.00
7376;BME280;3728;42.266;24.944;2023-01-04T00:19:48;100458.69;;;4.22;100.00
7376;BME280;3728;42.266;24.944;2023-01-04T00:22:16;100464.75;;;4.27;100.00
7376;BME280;3728;42.266;24.944;2023-01-04T00:24:43;100464.94;;;4.37;100.00
7376;BME280;3728;42.266;24.944;2023-01-04T00:27:11;100464.47;;;4.40;100.00
7376;BME280;3728;42.266;24.944;2023-01-04T00:29:38;100467.53;;;4.37;100.00
7376;BME280;3728;42.266;24.944;2023-01-04T00:32:06;100468.94;;;4.28;100.00
7376;BME280;3728;42.266;24.944;2023-01-04T00:34:33;100479.78;;;4.25;100.00
7376;BME280;3728;42.266;24.944;2023-01-04T00:37:01;100470.19;;;4.26;100.00
7376;BME280;3728;42.266;24.944;2023-01-04T00:39:28;100476.84;;;4.05;100.00
7376;BME280;3728;42.266;24.944;2023-01-04T00:41:56;100483.03;;;4.04;100.00
7376;BME280;3728;42.266;24.944;2023-01-04T00:44:32;100482.81;;;4.05;100.00
7376;BME280;3728;42.266;24.944;2023-01-04T00:47:01;100481.84;;;3.95;99.92
7376;BME280;3728;42.266;24.944;2023-01-04T00:49:30;100481.91;;;3.83;100.00
7376;BME280;3728;42.266;24.944;2023-01-04T00:51:58;100480.41;;;3.87;100.00
7376;BME280;3728;42.266;24.944;2023-01-04T00:54:26;100475.38;;;3.81;100.00
7376;BME280;3728;42.266;24.944;2023-01-04T00:56:54;100483.34;;;3.79;100.00
7376;BME280;3728;42.266;24.944;2023-01-04T00:59:22;100485.19;;;3.79;100.00
7376;BME280;3728;42.266;24.944;2023-01-04T01:01:50;100484.06;;;3.75;100.00
7376;BME280;3728;42.266;24.944;2023-01-04T01:04:20;100493.41;;;3.76;100.00
7376;BME280;3728;42.266;24.944;2023-01-04T01:06:50;100498.94;;;3.68;100.00
7376;BME280;3728;42.266;24.944;2023-01-04T01:09:18;100494.16;;;3.60;100.00
7376;BME280;3728;42.266;24.944;2023-01-04T01:11:49;100492.25;;;3.55;100.00
7376;BME280;3728;42.266;24.944;2023-01-04T01:14:20;100493.94;;;3.50;100.00
7376;BME280;3728;42.266;24.944;2023-01-04T01:16:49;100489.19;;;3.58;100.00
7376;BME280;3728;42.266;24.944;2023-01-04T01:19:26;100489.63;;;3.67;100.00
7376;BME280;3728;42.266;24.944;2023-01-04T01:21:54;100482.94;;;3.71;100.00
7376;BME280;3728;42.266;24.944;2023-01-04T01:24:23;100489.25;;;3.75;100.00
7376;BME280;3728;42.266;24.944;2023-01-04T01:26:51;100481.50;;;3.63;100.00
7376;BME280;3728;42.266;24.944;2023-01-04T01:29:19;100485.34;;;3.61;100.00
7376;BME280;3728;42.266;24.944;2023-01-04T01:31:46;100479.75;;;3.52;100.00
7376;BME280;3728;42.266;24.944;2023-01-04T01:34:14;100477.94;;;3.53;100.00
7376;BME280;3728;42.266;24.944;2023-01-04T01:36:42;100473.31;;;3.55;100.00
7376;BME280;3728;42.266;24.944;2023-01-04T01:39:09;100473.03;;;3.68;100.00
7376;BME280;3728;42.266;24.944;2023-01-04T01:41:37;100465.91;;;3.75;100.00
7376;BME280;3728;42.266;24.944;2023-01-04T01:44:50;100471.38;;;3.90;100.00
7376;BME280;3728;42.266;24.944;2023-01-04T01:47:21;100471.53;;;3.83;100.00
7376;BME280;3728;42.266;24.944;2023-01-04T01:49:52;100466.03;;;3.80;100.00
7376;BME280;3728;42.266;24.944;2023-01-04T01:52:25;100466.16;;;3.73;100.00
7376;BME280;3728;42.266;24.944;2023-01-04T01:55:00;100467.00;;;3.90;100.00
7376;BME280;3728;42.266;24.944;2023-01-04T01:57:33;100466.34;;;3.83;100.00
7376;BME280;3728;42.266;24.944;2023-01-04T02:00:06;100473.34;;;3.83;100.00
7376;BME280;3728;42.266;24.944;2023-01-04T02:02:46;100470.28;;;3.86;100.00
7376;BME280;3728;42.266;24.944;2023-01-04T02:05:20;100473.78;;;3.80;100.00
7376;BME280;3728;42.266;24.944;2023-01-04T02:07:48;100475.84;;;3.78;100.00
7376;BME280;3728;42.266;24.944;2023-01-04T02:10:16;100471.91;;;3.75;100.00
7376;BME280;3728;42.266;24.944;2023-01-04T02:12:45;100476.88;;;3.77;100.00
7376;BME280;3728;42.266;24.944;2023-01-04T02:15:12;100478.56;;;3.71;100.00
7376;BME280;3728;42.266;24.944;2023-01-04T02:17:45;100477.03;;;3.87;100.00
7376;BME280;3728;42.266;24.944;2023-01-04T02:20:35;100469.94;;;3.82;100.00
7376;BME280;3728;42.266;24.944;2023-01-04T02:24:11;100477.22;;;3.97;100.00
7376;BME280;3728;42.266;24.944;2023-01-04T02:32:31;100484.09;;;3.91;100.00
7376;BME280;3728;42.266;24.944;2023-01-04T02:43:30;100492.13;;;2.99;97.12
7376;BME280;3728;42.266;24.944;2023-01-04T02:46:34;100504.47;;;2.85;99.73
7376;BME280;3728;42.266;24.944;2023-01-04T02:49:08;100499.75;;;2.82;100.00
7376;BME280;3728;42.266;24.944;2023-01-04T02:51:54;100501.56;;;2.70;100.00
7376;BME280;3728;42.266;24.944;2023-01-04T02:54:24;100504.47;;;2.73;100.00
7376;BME280;3728;42.266;24.944;2023-01-04T03:02:55;100503.09;;;2.71;100.00
7376;BME280;3728;42.266;24.944;2023-01-04T03:06:15;100504.69;;;2.72;100.00
7376;BME280;3728;42.266;24.944;2023-01-04T03:09:20;100508.63;;;2.74;100.00
7376;BME280;3728;42.266;24.944;2023-01-04T03:11:58;100512.69;;;2.70;100.00
7376;BME280;3728;42.266;24.944;2023-01-04T03:14:57;100512.56;;;2.77;100.00
7376;BME280;3728;42.266;24.944;2023-01-04T03:17:39;100505.50;;;2.84;100.00
7376;BME280;3728;42.266;24.944;2023-01-04T03:20:11;100509.88;;;2.95;100.00
7376;BME280;3728;42.266;24.944;2023-01-04T03:22:44;100503.47;;;3.09;100.00
7376;BME280;3728;42.266;24.944;2023-01-04T03:25:43;100509.75;;;2.90;100.00
7376;BME280;3728;42.266;24.944;2023-01-04T03:28:35;100508.75;;;2.91;100.00
7376;BME280;3728;42.266;24.944;2023-01-04T03:34:17;100508.97;;;2.78;100.00
7376;BME280;3728;42.266;24.944;2023-01-04T03:46:25;100522.47;;;3.03;100.00
7376;BME280;3728;42.266;24.944;2023-01-04T03:49:19;100519.09;;;2.91;100.00
7376;BME280;3728;42.266;24.944;2023-01-04T03:51:54;100527.09;;;2.90;100.00
7376;BME280;3728;42.266;24.944;2023-01-04T03:54:28;100523.50;;;2.91;100.00
7376;BME280;3728;42.266;24.944;2023-01-04T03:57:00;100519.34;;;3.13;100.00
7376;BME280;3728;42.266;24.944;2023-01-04T03:59:29;100510.44;;;2.97;100.00
7376;BME280;3728;42.266;24.944;2023-01-04T04:01:57;100517.75;;;3.00;100.00
7376;BME280;3728;42.266;24.944;2023-01-04T04:04:25;100523.59;;;2.84;100.00
7376;BME280;3728;42.266;24.944;2023-01-04T04:07:11;100520.31;;;2.65;100.00
7376;BME280;3728;42.266;24.944;2023-01-04T04:09:57;100520.34;;;2.77;100.00
7376;BME280;3728;42.266;24.944;2023-01-04T04:12:25;100522.94;;;2.77;100.00
7376;BME280;3728;42.266;24.944;2023-01-04T04:14:53;100532.81;;;2.80;100.00
7376;BME280;3728;42.266;24.944;2023-01-04T04:17:20;100526.31;;;2.89;100.00
7376;BME280;3728;42.266;24.944;2023-01-04T04:19:48;100526.19;;;2.84;100.00
7376;BME280;3728;42.266;24.944;2023-01-04T04:22:15;100529.00;;;2.83;100.00
7376;BME280;3728;42.266;24.944;2023-01-04T04:24:43;100529.47;;;2.91;100.00
7376;BME280;3728;42.266;24.944;2023-01-04T04:27:10;100540.72;;;3.08;100.00
7376;BME280;3728;42.266;24.944;2023-01-04T04:29:37;100537.53;;;3.06;100.00
7376;BME280;3728;42.266;24.944;2023-01-04T04:32:05;100539.22;;;3.24;100.00
7376;BME280;3728;42.266;24.944;2023-01-04T04:34:33;100538.22;;;3.25;100.00
7376;BME280;3728;42.266;24.944;2023-01-04T04:37:14;100547.75;;;3.47;100.00
7376;BME280;3728;42.266;24.944;2023-01-04T04:39:42;100543.72;;;3.28;100.00
7376;BME280;3728;42.266;24.944;2023-01-04T04:42:09;100541.03;;;3.23;100.00
7376;BME280;3728;42.266;24.944;2023-01-04T04:44:37;100544.63;;;3.34;100.00
7376;BME280;3728;42.266;24.944;2023-01-04T04:47:04;100540.81;;;3.25;100.00
7376;BME280;3728;42.266;24.944;2023-01-04T04:49:32;100546.66;;;3.20;100.00
7376;BME280;3728;42.266;24.944;2023-01-04T04:51:59;100545.66;;;3.21;100.00
7376;BME280;3728;42.266;24.944;2023-01-04T04:54:27;100534.84;;;3.24;100.00
7376;BME280;3728;42.266;24.944;2023-01-04T04:56:54;100545.22;;;3.24;100.00
7376;BME280;3728;42.266;24.944;2023-01-04T04:59:22;100549.47;;;3.30;100.00
7376;BME280;3728;42.266;24.944;2023-01-04T05:01:49;100559.59;;;3.20;100.00
7376;BME280;3728;42.266;24.944;2023-01-04T05:04:17;100552.84;;;3.19;100.00
7376;BME280;3728;42.266;24.944;2023-01-04T05:06:47;100564.22;;;3.18;100.00
7376;BME280;3728;42.266;24.944;2023-01-04T05:09:15;100566.13;;;3.11;100.00
7376;BME280;3728;42.266;24.944;2023-01-04T05:11:43;100569.63;;;3.17;100.00
7376;BME280;3728;42.266;24.944;2023-01-04T05:14:29;100562.09;;;3.15;100.00
7376;BME280;3728;42.266;24.944;2023-01-04T05:16:59;100567.81;;;3.17;100.00
7376;BME280;3728;42.266;24.944;2023-01-04T05:19:27;100578.06;;;3.12;100.00
7376;BME280;3728;42.266;24.944;2023-01-04T05:21:55;100579.97;;;3.17;100.00
7376;BME280;3728;42.266;24.944;2023-01-04T05:24:22;100577.81;;;3.25;100.00
7376;BME280;3728;42.266;24.944;2023-01-04T05:26:51;100580.28;;;3.20;100.00
7376;BME280;3728;42.266;24.944;2023-01-04T05:29:18;100587.28;;;3.31;100.00
7376;BME280;3728;42.266;24.944;2023-01-04T05:32:04;100587.50;;;3.18;100.00
7376;BME280;3728;42.266;24.944;2023-01-04T05:34:32;100575.13;;;3.20;100.00
7376;BME280;3728;42.266;24.944;2023-01-04T05:37:02;100580.09;;;3.22;100.00
7376;BME280;3728;42.266;24.944;2023-01-04T05:39:29;100582.56;;;3.28;100.00
7376;BME280;3728;42.266;24.944;2023-01-04T05:41:57;100580.97;;;3.27;100.00
7376;BME280;3728;42.266;24.944;2023-01-04T05:44:45;100578.63;;;3.14;100.00
7376;BME280;3728;42.266;24.944;2023-01-04T05:47:15;100582.56;;;3.05;100.00
7376;BME280;3728;42.266;24.944;2023-01-04T05:49:43;100581.75;;;3.05;100.00
7376;BME280;3728;42.266;24.944;2023-01-04T05:52:10;100581.22;;;3.03;100.00
7376;BME280;3728;42.266;24.944;2023-01-04T05:54:38;100578.75;;;3.08;100.00
7376;BME280;3728;42.266;24.944;2023-01-04T05:57:06;100586.72;;;3.06;100.00
7376;BME280;3728;42.266;24.944;2023-01-04T05:59:34;100588.28;;;3.07;100.00
7376;BME280;3728;42.266;24.944;2023-01-04T06:02:13;100596.59;;;2.98;100.00
7376;BME280;3728;42.266;24.944;2023-01-04T06:04:45;100604.13;;;2.99;100.00
7376;BME280;3728;42.266;24.944;2023-01-04T06:07:23;100612.22;;;2.80;100.00
7376;BME280;3728;42.266;24.944;2023-01-04T06:09:50;100610.06;;;2.76;100.00
7376;BME280;3728;42.266;24.944;2023-01-04T06:12:19;100613.72;;;2.57;100.00
7376;BME280;3728;42.266;24.944;2023-01-04T06:14:46;100607.19;;;2.55;100.00
7376;BME280;3728;42.266;24.944;2023-01-04T06:17:14;100610.16;;;2.70;100.00
7376;BME280;3728;42.266;24.944;2023-01-04T06:19:41;100618.50;;;2.84;100.00
7376;BME280;3728;42.266;24.944;2023-01-04T06:22:09;100628.41;;;2.75;100.00
7376;BME280;3728;42.266;24.944;2023-01-04T06:24:37;100637.66;;;2.83;100.00
7376;BME280;3728;42.266;24.944;2023-01-04T06:27:04;100634.00;;;2.72;100.00
7376;BME280;3728;42.266;24.944;2023-01-04T06:29:32;100632.25;;;2.84;100.00
7376;BME280;3728;42.266;24.944;2023-01-04T06:31:59;100633.06;;;3.08;100.00
7376;BME280;3728;42.266;24.944;2023-01-04T06:34:27;100644.56;;;3.12;100.00
7376;BME280;3728;42.266;24.944;2023-01-04T06:36:57;100645.69;;;3.16;100.00
7376;BME280;3728;42.266;24.944;2023-01-04T06:39:25;100638.94;;;3.38;100.00
7376;BME280;3728;42.266;24.944;2023-01-04T06:41:52;100645.47;;;3.52;100.00
7376;BME280;3728;42.266;24.944;2023-01-04T06:44:27;100646.94;;;3.71;100.00
7376;BME280;3728;42.266;24.944;2023-01-04T06:46:55;100656.84;;;3.86;100.00
7376;BME280;3728;42.266;24.944;2023-01-04T06:49:22;100655.78;;;3.98;100.00
7376;BME280;3728;42.266;24.944;2023-01-04T06:51:49;100657.00;;;4.07;100.00
7376;BME280;3728;42.266;24.944;2023-01-04T06:54:17;100656.66;;;4.15;100.00
7376;BME280;3728;42.266;24.944;2023-01-04T06:56:44;100665.56;;;4.08;100.00
7376;BME280;3728;42.266;24.944;2023-01-04T06:59:13;100667.81;;;4.16;100.00
7376;BME280;3728;42.266;24.944;2023-01-04T07:01:41;100664.91;;;4.41;100.00
7376;BME280;3728;42.266;24.944;2023-01-04T07:04:08;100662.22;;;4.47;100.00
7376;BME280;3728;42.266;24.944;2023-01-04T07:06:48;100663.38;;;4.68;100.00
7376;BME280;3728;42.266;24.944;2023-01-04T07:09:16;100662.81;;;4.66;100.00
7376;BME280;3728;42.266;24.944;2023-01-04T07:11:44;100662.47;;;4.62;100.00
7376;BME280;3728;42.266;24.944;2023-01-04T07:14:12;100660.94;;;4.78;100.00
7376;BME280;3728;42.266;24.944;2023-01-04T07:16:39;100669.94;;;4.87;100.00
7376;BME280;3728;42.266;24.944;2023-01-04T07:19:07;100664.66;;;4.99;100.00
7376;BME280;3728;42.266;24.944;2023-01-04T07:21:35;100666.88;;;5.07;100.00
7376;BME280;3728;42.266;24.944;2023-01-04T07:24:02;100668.53;;;5.29;100.00
7376;BME280;3728;42.266;24.944;2023-01-04T07:26:30;100677.69;;;5.32;100.00
7376;BME280;3728;42.266;24.944;2023-01-04T07:28:57;100678.59;;;5.59;100.00
7376;BME280;3728;42.266;24.944;2023-01-04T07:31:41;100676.75;;;5.76;98.30
7376;BME280;3728;42.266;24.944;2023-01-04T07:34:10;100683.03;;;5.80;97.34
7376;BME280;3728;42.266;24.944;2023-01-04T07:36:38;100686.91;;;5.94;97.73
7376;BME280;3728;42.266;24.944;2023-01-04T07:39:07;100681.38;;;6.07;97.13
7376;BME280;3728;42.266;24.944;2023-01-04T07:41:40;100687.41;;;6.35;96.64
7376;BME280;3728;42.266;24.944;2023-01-04T07:44:09;100683.28;;;6.39;96.02
7376;BME280;3728;42.266;24.944;2023-01-04T07:46:38;100688.00;;;6.42;96.24
7376;BME280;3728;42.266;24.944;2023-01-04T07:49:11;100682.53;;;6.65;95.57
7376;BME280;3728;42.266;24.944;2023-01-04T07:51:45;100694.59;;;6.76;94.36
7376;BME280;3728;42.266;24.944;2023-01-04T07:54:14;100689.13;;;6.99;93.91
7376;BME280;3728;42.266;24.944;2023-01-04T07:56:44;100699.41;;;7.16;92.56
7376;BME280;3728;42.266;24.944;2023-01-04T07:59:14;100697.63;;;7.21;91.09
7376;BME280;3728;42.266;24.944;2023-01-04T08:01:43;100710.94;;;7.25;91.43
7376;BME280;3728;42.266;24.944;2023-01-04T08:04:12;100711.59;;;7.42;91.72
7376;BME280;3728;42.266;24.944;2023-01-04T08:06:41;100704.38;;;7.54;91.89
7376;BME280;3728;42.266;24.944;2023-01-04T08:09:10;100717.31;;;7.76;90.33
7376;BME280;3728;42.266;24.944;2023-01-04T08:11:38;100713.81;;;8.02;88.96
7376;BME280;3728;42.266;24.944;2023-01-04T08:14:06;100703.44;;;8.12;87.53
7376;BME280;3728;42.266;24.944;2023-01-04T08:16:38;100695.63;;;8.17;87.72
7376;BME280;3728;42.266;24.944;2023-01-04T08:19:11;100711.91;;;8.39;86.46
7376;BME280;3728;42.266;24.944;2023-01-04T08:21:43;100707.53;;;8.50;85.57
7376;BME280;3728;42.266;24.944;2023-01-04T08:24:16;100712.22;;;8.58;85.09
7376;BME280;3728;42.266;24.944;2023-01-04T08:26:45;100713.31;;;8.67;85.09
7376;BME280;3728;42.266;24.944;2023-01-04T08:29:13;100703.69;;;8.87;84.81
7376;BME280;3728;42.266;24.944;2023-01-04T08:31:41;100709.97;;;9.17;83.01
7376;BME280;3728;42.266;24.944;2023-01-04T08:34:10;100710.78;;;9.32;83.11
7376;BME280;3728;42.266;24.944;2023-01-04T08:36:48;100697.19;;;9.45;83.40
7376;BME280;3728;42.266;24.944;2023-01-04T08:39:17;100697.16;;;9.66;82.36
7376;BME280;3728;42.266;24.944;2023-01-04T08:41:44;100702.03;;;10.07;79.62
7376;BME280;3728;42.266;24.944;2023-01-04T08:44:30;100701.75;;;10.14;79.34
7376;BME280;3728;42.266;24.944;2023-01-04T08:47:01;100697.72;;;10.37;77.74
7376;BME280;3728;42.266;24.944;2023-01-04T08:49:29;100694.53;;;10.50;77.88
7376;BME280;3728;42.266;24.944;2023-01-04T08:51:56;100702.22;;;10.80;76.41
7376;BME280;3728;42.266;24.944;2023-01-04T08:54:24;100696.75;;;11.10;75.02
7376;BME280;3728;42.266;24.944;2023-01-04T08:56:52;100699.34;;;11.15;75.39
7376;BME280;3728;42.266;24.944;2023-01-04T08:59:19;100691.25;;;11.40;74.39
7376;BME280;3728;42.266;24.944;2023-01-04T09:01:49;100683.56;;;11.54;74.24
7376;BME280;3728;42.266;24.944;2023-01-04T09:04:17;100679.97;;;11.97;72.47
7376;BME280;3728;42.266;24.944;2023-01-04T09:06:45;100672.06;;;12.40;71.99
7376;BME280;3728;42.266;24.944;2023-01-04T09:09:14;100679.63;;;12.83;70.15
7376;BME280;3728;42.266;24.944;2023-01-04T09:11:41;100683.72;;;12.89;68.31
7376;BME280;3728;42.266;24.944;2023-01-04T09:14:09;100675.69;;;12.99;68.60
7376;BME280;3728;42.266;24.944;2023-01-04T09:16:39;100679.69;;;13.29;66.38
7376;BME280;3728;42.266;24.944;2023-01-04T09:19:07;100674.91;;;13.63;66.31
7376;BME280;3728;42.266;24.944;2023-01-04T09:21:34;100678.97;;;13.97;64.66
7376;BME280;3728;42.266;24.944;2023-01-04T09:24:02;100679.22;;;14.50;62.59
7376;BME280;3728;42.266;24.944;2023-01-04T09:26:30;100679.84;;;14.91;61.12
7376;BME280;3728;42.266;24.944;2023-01-04T09:28:57;100684.97;;;15.10;60.25
7376;BME280;3728;42.266;24.944;2023-01-04T09:31:27;100675.78;;;15.29;57.77
7376;BME280;3728;42.266;24.944;2023-01-04T09:33:55;100671.19;;;15.43;58.15
7376;BME280;3728;42.266;24.944;2023-01-04T09:36:42;100676.91;;;15.37;58.76
7376;BME280;3728;42.266;24.944;2023-01-04T09:39:11;100676.19;;;15.23;59.40
7376;BME280;3728;42.266;24.944;2023-01-04T09:41:59;100664.38;;;15.20;59.16
7376;BME280;3728;42.266;24.944;2023-01-04T09:44:35;100662.44;;;15.56;58.03
7376;BME280;3728;42.266;24.944;2023-01-04T09:50:21;100641.81;;;16.32;57.26
7376;BME280;3728;42.266;24.944;2023-01-04T09:53:10;100639.34;;;16.61;55.64
7376;BME280;3728;42.266;24.944;2023-01-04T09:56:23;100644.28;;;16.37;55.50
7376;BME280;3728;42.266;24.944;2023-01-04T09:58:54;100644.38;;;15.89;57.83
7376;BME280;3728;42.266;24.944;2023-01-04T10:01:47;100636.38;;;15.72;57.99
7376;BME280;3728;42.266;24.944;2023-01-04T10:04:28;100633.66;;;15.24;60.94
7376;BME280;3728;42.266;24.944;2023-01-04T10:07:28;100625.25;;;14.91;63.19
7376;BME280;3728;42.266;24.944;2023-01-04T10:09:58;100625.81;;;14.58;64.84
7376;BME280;3728;42.266;24.944;2023-01-04T10:12:45;100620.94;;;14.51;67.51
7376;BME280;3728;42.266;24.944;2023-01-04T10:25:57;100618.69;;;14.80;67.56
7376;BME280;3728;42.266;24.944;2023-01-04T10:29:06;100616.75;;;14.72;67.78
7376;BME280;3728;42.266;24.944;2023-01-04T10:34:31;100608.13;;;14.80;69.23
7376;BME280;3728;42.266;24.944;2023-01-04T10:37:12;100599.84;;;14.95;68.36
7376;BME280;3728;42.266;24.944;2023-01-04T10:40:00;100603.00;;;15.37;65.88
7376;BME280;3728;42.266;24.944;2023-01-04T10:42:38;100600.16;;;15.33;65.31
7376;BME280;3728;42.266;24.944;2023-01-04T10:48:47;100590.56;;;15.37;66.01
7376;BME280;3728;42.266;24.944;2023-01-04T10:51:28;100587.50;;;15.44;63.68
7376;BME280;3728;42.266;24.944;2023-01-04T10:54:38;100581.75;;;15.90;60.68
7376;BME280;3728;42.266;24.944;2023-01-04T10:57:22;100577.34;;;15.77;60.97
7376;BME280;3728;42.266;24.944;2023-01-04T11:00:06;100572.59;;;16.13;59.35
7376;BME280;3728;42.266;24.944;2023-01-04T11:03:03;100589.22;;;16.48;60.26
7376;BME280;3728;42.266;24.944;2023-01-04T11:05:56;100579.00;;;17.47;56.43
7376;BME280;3728;42.266;24.944;2023-01-04T11:11:32;100577.72;;;19.34;51.05
7376;BME280;3728;42.266;24.944;2023-01-04T11:14:03;100570.38;;;20.04;49.59
7376;BME280;3728;42.266;24.944;2023-01-04T11:16:31;100582.47;;;20.84;46.51
7376;BME280;3728;42.266;24.944;2023-01-04T11:18:58;100581.91;;;21.38;45.32
7376;BME280;3728;42.266;24.944;2023-01-04T11:21:28;100587.91;;;21.50;45.13
7376;BME280;3728;42.266;24.944;2023-01-04T11:24:03;100583.63;;;21.15;44.09
7376;BME280;3728;42.266;24.944;2023-01-04T11:26:53;100586.75;;;20.06;46.25
7376;BME280;3728;42.266;24.944;2023-01-04T11:29:27;100579.28;;;19.23;48.66
7376;BME280;3728;42.266;24.944;2023-01-04T11:31:58;100579.41;;;18.82;50.10
7376;BME280;3728;42.266;24.944;2023-01-04T11:34:58;100571.16;;;18.51;51.08
7376;BME280;3728;42.266;24.944;2023-01-04T11:40:20;100577.50;;;19.27;48.53
7376;BME280;3728;42.266;24.944;2023-01-04T11:51:01;100572.91;;;20.68;46.12
7376;BME280;3728;42.266;24.944;2023-01-04T11:53:36;100580.00;;;20.91;45.13
7376;BME280;3728;42.266;24.944;2023-01-04T11:56:09;100574.66;;;21.23;44.88
7376;BME280;3728;42.266;24.944;2023-01-04T11:58:40;100574.38;;;21.43;44.39
7376;BME280;3728;42.266;24.944;2023-01-04T12:01:23;100574.41;;;21.28;43.94
7376;BME280;3728;42.266;24.944;2023-01-04T12:03:51;100574.38;;;20.81;45.74
7376;BME280;3728;42.266;24.944;2023-01-04T12:08:51;100570.63;;;20.54;46.34
7376;BME280;3728;42.266;24.944;2023-01-04T12:11:33;100568.19;;;20.77;46.00
7376;BME280;3728;42.266;24.944;2023-01-04T12:14:03;100564.69;;;20.88;45.42
7376;BME280;3728;42.266;24.944;2023-01-04T12:17:10;100566.22;;;21.52;44.09
7376;BME280;3728;42.266;24.944;2023-01-04T12:19:40;100560.25;;;21.24;43.92
7376;BME280;3728;42.266;24.944;2023-01-04T12:25:08;100557.44;;;20.30;47.24
7376;BME280;3728;42.266;24.944;2023-01-04T12:28:01;100570.06;;;20.21;48.76
7376;BME280;3728;42.266;24.944;2023-01-04T12:30:40;100567.75;;;20.31;49.71
7376;BME280;3728;42.266;24.944;2023-01-04T12:36:08;100564.63;;;20.57;45.70
7376;BME280;3728;42.266;24.944;2023-01-04T12:39:25;100559.22;;;20.26;46.92
7376;BME280;3728;42.266;24.944;2023-01-04T12:50:17;100566.81;;;20.67;47.54
7376;BME280;3728;42.266;24.944;2023-01-04T12:52:55;100565.13;;;20.90;46.21
7376;BME280;3728;42.266;24.944;2023-01-04T13:01:22;100561.59;;;21.02;45.36
7376;BME280;3728;42.266;24.944;2023-01-04T13:03:59;100561.72;;;20.62;46.32
7376;BME280;3728;42.266;24.944;2023-01-04T13:06:50;100563.81;;;20.13;47.87
7376;BME280;3728;42.266;24.944;2023-01-04T13:09:19;100567.00;;;20.07;47.96
7376;BME280;3728;42.266;24.944;2023-01-04T13:12:12;100573.22;;;20.23;48.34
7376;BME280;3728;42.266;24.944;2023-01-04T13:14:49;100564.09;;;20.52;48.17
7376;BME280;3728;42.266;24.944;2023-01-04T13:17:22;100562.28;;;20.83;46.29
7376;BME280;3728;42.266;24.944;2023-01-04T13:19:52;100563.66;;;20.93;46.63
7376;BME280;3728;42.266;24.944;2023-01-04T13:22:28;100565.72;;;21.15;45.74
7376;BME280;3728;42.266;24.944;2023-01-04T13:24:58;100559.41;;;21.20;45.20
7376;BME280;3728;42.266;24.944;2023-01-04T13:27:30;100561.25;;;21.50;44.25
7376;BME280;3728;42.266;24.944;2023-01-04T13:29:59;100563.03;;;21.46;45.23
7376;BME280;3728;42.266;24.944;2023-01-04T13:32:30;100560.50;;;21.69;44.42
7376;BME280;3728;42.266;24.944;2023-01-04T13:35:22;100564.44;;;21.40;44.61
7376;BME280;3728;42.266;24.944;2023-01-04T13:37:50;100556.59;;;21.32;44.44
7376;BME280;3728;42.266;24.944;2023-01-04T13:43:05;100551.88;;;20.94;46.02
7376;BME280;3728;42.266;24.944;2023-01-04T13:45:50;100553.25;;;21.03;45.74
7376;BME280;3728;42.266;24.944;2023-01-04T13:48:36;100553.69;;;20.74;46.48
7376;BME280;3728;42.266;24.944;2023-01-04T13:51:16;100555.31;;;20.63;46.56
7376;BME280;3728;42.266;24.944;2023-01-04T13:54:05;100554.34;;;20.56;46.63
7376;BME280;3728;42.266;24.944;2023-01-04T13:56:46;100554.81;;;20.45;46.95
7376;BME280;3728;42.266;24.944;2023-01-04T13:59:21;100555.91;;;20.17;47.11
7376;BME280;3728;42.266;24.944;2023-01-04T14:01:49;100553.16;;;19.73;48.16
7376;BME280;3728;42.266;24.944;2023-01-04T14:04:24;100555.06;;;19.37;49.25
7376;BME280;3728;42.266;24.944;2023-01-04T14:06:56;100560.19;;;18.85;51.21
7376;BME280;3728;42.266;24.944;2023-01-04T14:09:30;100554.56;;;18.54;52.21
7376;BME280;3728;42.266;24.944;2023-01-04T14:12:14;100553.81;;;18.32;53.28
7376;BME280;3728;42.266;24.944;2023-01-04T14:14:58;100561.75;;;18.32;53.71
7376;BME280;3728;42.266;24.944;2023-01-04T14:17:52;100566.09;;;18.58;52.67
7376;BME280;3728;42.266;24.944;2023-01-04T14:22:53;100572.53;;;18.69;52.52
7376;BME280;3728;42.266;24.944;2023-01-04T14:31:10;100578.50;;;18.45;53.37
7376;BME280;3728;42.266;24.944;2023-01-04T14:41:40;100569.63;;;16.66;60.12
7376;BME280;3728;42.266;24.944;2023-01-04T14:44:17;100573.34;;;16.30;63.29
7376;BME280;3728;42.266;24.944;2023-01-04T14:46:49;100581.28;;;16.05;64.57
7376;BME280;3728;42.266;24.944;2023-01-04T14:49:19;100572.25;;;15.89;65.78
7376;BME280;3728;42.266;24.944;2023-01-04T14:51:51;100577.50;;;15.71;66.69
7376;BME280;3728;42.266;24.944;2023-01-04T14:54:24;100569.56;;;15.54;68.17
7376;BME280;3728;42.266;24.944;2023-01-04T14:56:54;100569.13;;;15.39;69.09
7376;BME280;3728;42.266;24.944;2023-01-04T14:59:22;100571.78;;;15.39;69.86
7376;BME280;3728;42.266;24.944;2023-01-04T15:01:53;100568.91;;;15.18;70.44
7376;BME280;3728;42.266;24.944;2023-01-04T15:04:24;100571.78;;;14.99;71.63
7376;BME280;3728;42.266;24.944;2023-01-04T15:06:58;100577.25;;;14.81;72.86
7376;BME280;3728;42.266;24.944;2023-01-04T15:09:27;100576.13;;;14.73;73.44
7376;BME280;3728;42.266;24.944;2023-01-04T15:11:56;100578.53;;;14.61;74.35
7376;BME280;3728;42.266;24.944;2023-01-04T15:14:24;100587.34;;;14.57;74.76
7376;BME280;3728;42.266;24.944;2023-01-04T15:16:55;100587.81;;;14.59;75.12
7376;BME280;3728;42.266;24.944;2023-01-04T15:19:23;100594.22;;;14.44;75.69
7376;BME280;3728;42.266;24.944;2023-01-04T15:21:50;100590.06;;;14.29;75.94
7376;BME280;3728;42.266;24.944;2023-01-04T15:24:18;100596.38;;;14.28;76.85